» Metar & Tafor

16 November 2020
METAR
Pukul : 00.30 UTC
Isi :

METAR WAGI 100030Z 06003KT 8000 FEW015 27/24 Q1009 NOSIG=


10 Juni 2019
TAFOR
Pukul : 00 - 12 UTC
Isi :

FTID41 WAGG 070500
TAF WAGI 070500Z 0706/0718 19005KT 9999 FEW013CB BKN014 TEMPO 0707/0711 3000 -TSRA=


Hal: << First | < Prev | 1 | Next > | Last >>